Time;durP1;ratioP1;P1;durP2;ratioP2;P2;SDS_P1;SDS_P2;PMS_P1;PMS_P2;Temp;Humidity;BMP_temperature;BMP_pressure;BME280_temperature;BME280_humidity;BME280_pressure;Samples;Min_cycle;Max_cycle;Signal;HPM_P1;HPM_P2
2021/12/08 00:01:59;;;;;;;12.35;5.72;;;4.30;99.90;;;;;;5054101;28;20055;-83
2021/12/08 00:04:25;;;;;;;14.80;6.32;;;3.40;99.90;;;;;;5071950;28;20052;-83
2021/12/08 00:06:51;;;;;;;10.40;6.20;;;3.30;99.90;;;;;;5071510;28;20045;-83
2021/12/08 00:09:28;;;;;;;10.55;5.55;;;3.20;99.90;;;;;;5055042;28;20105;-82
2021/12/08 00:14:38;;;;;;;15.45;6.65;;;3.20;99.90;;;;;;5072067;28;20106;-82
2021/12/08 00:17:04;;;;;;;15.95;6.70;;;3.00;99.90;;;;;;5054642;28;20384;-83
2021/12/08 00:19:30;;;;;;;14.40;8.63;;;3.80;99.90;;;;;;5072928;28;20036;-83
2021/12/08 00:21:56;;;;;;;14.05;6.10;;;3.10;99.90;;;;;;5054559;28;20057;-83
2021/12/08 00:24:22;;;;;;;18.05;7.70;;;3.10;99.90;;;;;;5071553;28;20105;-84
2021/12/08 00:26:48;;;;;;;16.55;7.40;;;3.10;99.90;;;;;;5072852;28;20056;-84
2021/12/08 00:29:13;;;;;;;15.15;7.10;;;3.10;99.90;;;;;;5070962;28;20040;-85
2021/12/08 00:31:40;;;;;;;17.02;8.20;;;3.00;99.90;;;;;;5071295;28;20124;-83
2021/12/08 00:34:06;;;;;;;20.25;8.18;;;3.00;99.90;;;;;;5070827;28;20052;-84
2021/12/08 00:36:39;;;;;;;16.98;6.88;;;3.10;99.90;;;;;;5071474;28;20045;-84
2021/12/08 00:39:04;;;;;;;12.68;7.22;;;3.60;99.90;;;;;;5082453;28;20052;-84
2021/12/08 00:41:30;;;;;;;16.08;7.53;;;3.20;99.90;;;;;;5092760;28;20063;-83
2021/12/08 00:43:56;;;;;;;15.38;7.60;;;4.00;99.90;;;;;;5091222;28;20443;-82
2021/12/08 00:46:22;;;;;;;18.17;7.72;;;2.70;99.90;;;;;;5091158;28;20052;-83
2021/12/08 00:48:49;;;;;;;16.73;7.30;;;3.10;99.90;;;;;;5091595;28;20567;-83
2021/12/08 00:51:16;;;;;;;16.27;7.30;;;3.20;99.90;;;;;;5090782;28;20090;-84
2021/12/08 00:53:42;;;;;;;18.35;7.57;;;3.20;99.90;;;;;;5092512;28;20480;-84
2021/12/08 00:56:07;;;;;;;16.60;7.78;;;4.30;99.90;;;;;;5091826;28;20087;-83
2021/12/08 00:58:33;;;;;;;10.48;5.22;;;3.30;99.90;;;;;;5091289;28;20488;-86
2021/12/08 01:00:59;;;;;;;14.25;7.88;;;3.40;99.90;;;;;;5090690;28;20048;-83
2021/12/08 01:03:24;;;;;;;13.90;6.22;;;3.40;99.90;;;;;;5090849;28;20043;-84
2021/12/08 01:05:54;;;;;;;14.45;6.85;;;3.60;99.90;;;;;;5092228;28;20552;-85
2021/12/08 01:08:21;;;;;;;14.60;7.07;;;3.50;99.90;;;;;;5090103;28;20645;-84
2021/12/08 01:10:48;;;;;;;12.60;6.40;;;3.50;99.90;;;;;;5090995;28;20055;-84
2021/12/08 01:13:14;;;;;;;14.77;6.68;;;4.30;99.90;;;;;;5073483;28;20496;-84
2021/12/08 01:15:42;;;;;;;13.50;6.93;;;4.10;99.90;;;;;;5092044;28;20130;-84
2021/12/08 01:18:07;;;;;;;11.50;6.15;;;3.60;99.90;;;;;;5090182;28;20138;-85
2021/12/08 01:20:33;;;;;;;14.45;6.90;;;3.70;99.90;;;;;;5090708;28;20047;-84
2021/12/08 01:22:59;;;;;;;11.90;6.30;;;3.80;99.90;;;;;;5091987;28;20483;-85
2021/12/08 01:25:25;;;;;;;10.60;5.97;;;3.70;99.90;;;;;;5073243;28;20047;-84
2021/12/08 01:27:50;;;;;;;12.55;6.25;;;3.80;99.90;;;;;;5090287;28;20522;-83
2021/12/08 01:30:16;;;;;;;11.70;6.20;;;4.60;99.90;;;;;;5073398;28;20077;-83
2021/12/08 01:32:42;;;;;;;10.77;5.60;;;4.60;99.90;;;;;;5090505;28;20040;-83
2021/12/08 01:35:08;;;;;;;11.63;6.57;;;3.90;99.90;;;;;;5091094;28;20056;-84
2021/12/08 01:37:34;;;;;;;17.40;6.55;;;3.90;99.90;;;;;;5090376;28;20082;-84
2021/12/08 01:40:01;;;;;;;13.90;5.95;;;3.90;99.90;;;;;;5091202;28;20078;-85
2021/12/08 01:42:32;;;;;;;11.73;6.47;;;4.80;99.90;;;;;;5090974;28;20044;-85
2021/12/08 01:47:42;;;;;;;12.35;6.90;;;3.90;99.90;;;;;;5076064;28;20051;-84
2021/12/08 01:50:08;;;;;;;17.02;6.50;;;4.60;99.90;;;;;;5090772;28;20040;-84
2021/12/08 01:52:33;;;;;;;10.27;5.70;;;3.90;99.90;;;;;;5090042;28;20048;-85
2021/12/08 01:54:59;;;;;;;14.73;6.13;;;4.00;99.90;;;;;;5090369;28;20066;-85
2021/12/08 01:57:25;;;;;;;11.90;6.30;;;4.00;99.90;;;;;;5072819;28;20309;-85
2021/12/08 01:59:51;;;;;;;15.77;6.28;;;3.90;99.90;;;;;;5089802;28;20044;-84
2021/12/08 02:02:16;;;;;;;11.13;6.75;;;4.40;99.90;;;;;;5089358;28;20044;-86
2021/12/08 02:04:42;;;;;;;13.60;6.32;;;4.80;99.90;;;;;;5090190;28;20044;-86
2021/12/08 02:07:08;;;;;;;10.90;6.18;;;3.90;99.90;;;;;;5089477;28;20040;-84
2021/12/08 02:09:34;;;;;;;15.27;7.40;;;3.90;99.90;;;;;;5073223;28;20757;-86
2021/12/08 02:11:59;;;;;;;12.80;7.47;;;3.80;99.90;;;;;;5090052;28;20392;-85
2021/12/08 02:14:25;;;;;;;10.70;6.85;;;3.80;99.90;;;;;;5090455;28;20047;-84
2021/12/08 02:16:53;;;;;;;11.85;6.70;;;4.40;99.90;;;;;;5090066;28;20056;-82
2021/12/08 02:19:18;;;;;;;14.15;6.88;;;4.60;99.90;;;;;;5072699;28;20044;-84
2021/12/08 02:21:49;;;;;;;10.32;6.40;;;3.80;99.90;;;;;;5090936;28;20475;-86
2021/12/08 02:24:14;;;;;;;15.77;6.70;;;3.80;99.90;;;;;;5072782;28;20112;-84
2021/12/08 02:26:42;;;;;;;14.80;6.78;;;4.30;99.90;;;;;;5089763;28;20056;-85
2021/12/08 02:29:10;;;;;;;12.50;7.95;;;3.70;99.90;;;;;;5089624;28;20047;-84
2021/12/08 02:50:18;;;;;;;14.88;7.45;;;3.80;99.90;;;;;;5089002;28;20070;-85
2021/12/08 02:52:43;;;;;;;15.15;7.50;;;3.90;99.90;;;;;;5090613;28;20040;-85
2021/12/08 02:55:09;;;;;;;11.35;7.72;;;3.80;99.90;;;;;;5089376;28;20408;-86
2021/12/08 02:57:35;;;;;;;15.75;7.72;;;3.80;99.90;;;;;;5088775;28;20629;-86
2021/12/08 03:00:01;;;;;;;16.83;8.07;;;3.80;99.90;;;;;;5089199;28;20051;-86
2021/12/08 03:02:26;;;;;;;9.50;6.97;;;3.80;99.90;;;;;;5088798;28;20799;-86
2021/12/08 03:04:52;;;;;;;11.20;7.22;;;4.90;99.90;;;;;;5089307;28;20051;-84
2021/12/08 03:07:18;;;;;;;14.25;7.40;;;4.50;99.90;;;;;;5088977;28;20056;-83
2021/12/08 03:09:43;;;;;;;11.73;7.72;;;3.90;99.90;;;;;;5089163;28;20039;-84
2021/12/08 03:12:09;;;;;;;12.57;7.68;;;4.20;99.90;;;;;;5089165;28;20048;-85
2021/12/08 03:14:35;;;;;;;13.60;7.55;;;4.10;99.90;;;;;;5088653;28;20051;-86
2021/12/08 03:17:04;;;;;;;15.00;8.48;;;3.90;99.90;;;;;;5089329;28;20047;-86
2021/12/08 03:19:30;;;;;;;14.13;7.65;;;3.80;99.90;;;;;;5088621;28;20067;-84
2021/12/08 03:21:56;;;;;;;13.20;7.93;;;3.80;99.90;;;;;;5089378;28;20185;-86
2021/12/08 03:24:30;;;;;;;14.57;8.85;;;4.60;99.90;;;;;;5088769;28;20127;-83
2021/12/08 03:29:56;;;;;;;13.25;8.75;;;4.10;99.90;;;;;;5088651;28;20060;-85
2021/12/08 03:32:31;;;;;;;12.03;8.83;;;4.00;99.90;;;;;;5088966;28;20104;-82
2021/12/08 03:34:56;;;;;;;15.10;8.75;;;4.10;99.90;;;;;;5089244;28;20343;-85
2021/12/08 03:37:26;;;;;;;15.93;9.40;;;4.10;99.90;;;;;;5090705;28;20059;-83
2021/12/08 03:39:52;;;;;;;15.00;9.95;;;4.60;99.90;;;;;;5093808;28;20056;-85
2021/12/08 03:42:20;;;;;;;15.30;10.10;;;4.70;99.90;;;;;;5092618;28;20052;-86
2021/12/08 03:44:47;;;;;;;15.30;10.45;;;4.10;99.90;;;;;;5109272;28;20504;-86
2021/12/08 03:47:16;;;;;;;18.70;10.73;;;4.90;99.90;;;;;;5092823;28;20048;-87
2021/12/08 03:49:43;;;;;;;17.55;11.00;;;4.20;99.90;;;;;;5075520;28;20181;-85
2021/12/08 03:52:09;;;;;;;16.52;11.90;;;4.20;99.90;;;;;;5075702;28;20056;-86
2021/12/08 03:54:35;;;;;;;17.02;12.10;;;4.10;99.90;;;;;;5091736;28;20043;-86
2021/12/08 03:57:00;;;;;;;17.35;11.02;;;4.20;99.90;;;;;;5092340;28;20499;-86
2021/12/08 03:59:26;;;;;;;15.25;10.80;;;4.20;99.90;;;;;;5092036;28;20044;-84
2021/12/08 04:01:52;;;;;;;12.90;10.23;;;4.30;99.90;;;;;;5092173;28;20040;-85
2021/12/08 04:04:17;;;;;;;17.42;12.18;;;4.90;99.90;;;;;;5092346;28;20063;-86
2021/12/08 04:06:50;;;;;;;15.82;10.82;;;4.30;99.90;;;;;;5091757;28;20050;-86
2021/12/08 04:09:24;;;;;;;15.07;11.90;;;4.30;99.90;;;;;;5092525;28;20047;-86
2021/12/08 04:11:50;;;;;;;16.25;12.20;;;4.30;99.90;;;;;;5076312;28;20056;-86
2021/12/08 04:14:17;;;;;;;20.42;13.02;;;5.00;99.90;;;;;;5092240;28;20050;-86
2021/12/08 04:16:53;;;;;;;19.80;13.57;;;4.80;99.90;;;;;;5074639;28;20055;-87
2021/12/08 04:19:19;;;;;;;18.27;13.55;;;4.90;99.90;;;;;;5093152;28;20731;-88
2021/12/08 04:21:45;;;;;;;21.75;13.93;;;4.40;99.90;;;;;;5091386;28;20054;-86
2021/12/08 04:24:11;;;;;;;21.00;13.77;;;4.50;99.90;;;;;;5075212;28;20123;-87
2021/12/08 04:26:49;;;;;;;19.00;13.88;;;4.50;99.90;;;;;;5091319;28;20123;-87
2021/12/08 04:29:16;;;;;;;18.83;13.65;;;4.40;99.90;;;;;;5091833;28;20055;-86
2021/12/08 04:31:42;;;;;;;22.75;15.43;;;4.30;99.90;;;;;;5091113;28;20453;-87
2021/12/08 04:34:15;;;;;;;23.38;15.18;;;4.30;99.90;;;;;;5075122;28;20086;-86
2021/12/08 04:36:45;;;;;;;21.15;14.80;;;4.40;99.90;;;;;;5090950;28;20560;-86
2021/12/08 04:42:38;;;;;;;23.70;15.77;;;4.50;99.90;;;;;;5066829;28;20083;-87
2021/12/08 04:45:11;;;;;;;22.35;15.10;;;4.50;99.90;;;;;;5074943;28;20047;-86
2021/12/08 04:47:50;;;;;;;20.10;15.40;;;4.50;99.90;;;;;;5090707;28;20495;-88
2021/12/08 04:53:08;;;;;;;21.05;15.57;;;4.50;99.90;;;;;;5077288;28;20058;-87
2021/12/08 05:01:21;;;;;;;23.42;15.43;;;5.00;99.90;;;;;;5076879;28;20044;-88
2021/12/08 05:09:01;;;;;;;23.80;16.57;;;4.60;99.90;;;;;;5090459;28;20082;-86
2021/12/08 05:11:33;;;;;;;25.25;17.02;;;5.60;99.90;;;;;;5091102;28;20048;-87
2021/12/08 05:14:02;;;;;;;26.05;17.40;;;5.20;99.90;;;;;;5073793;28;20648;-88
2021/12/08 05:16:28;;;;;;;24.38;16.58;;;4.60;99.90;;;;;;5090902;28;20052;-87
2021/12/08 05:18:54;;;;;;;24.40;16.67;;;4.70;99.90;;;;;;5091433;28;20480;-88
2021/12/08 05:21:41;;;;;;;22.08;16.13;;;5.50;99.90;;;;;;5107667;28;20449;-85
2021/12/08 05:24:16;;;;;;;25.48;16.23;;;4.70;99.90;;;;;;5076075;28;20055;-86
2021/12/08 05:27:10;;;;;;;22.67;15.75;;;4.60;99.90;;;;;;5090413;28;20127;-83
2021/12/08 05:29:43;;;;;;;25.67;16.98;;;4.70;99.90;;;;;;5088635;28;20060;-87
2021/12/08 05:32:09;;;;;;;22.05;15.90;;;4.60;99.90;;;;;;5073826;28;20436;-87
2021/12/08 05:34:35;;;;;;;27.83;17.33;;;4.80;99.90;;;;;;5073911;28;20044;-87
2021/12/08 05:37:01;;;;;;;24.33;16.42;;;4.60;99.90;;;;;;5090101;28;20577;-86
2021/12/08 05:39:28;;;;;;;28.30;17.27;;;4.60;99.90;;;;;;5090080;28;20059;-85
2021/12/08 05:41:56;;;;;;;24.70;16.25;;;4.40;99.90;;;;;;5089691;28;20074;-86
2021/12/08 05:44:22;;;;;;;25.35;17.27;;;4.60;99.90;;;;;;5091568;28;20056;-86
2021/12/08 05:46:49;;;;;;;26.13;17.17;;;5.00;99.90;;;;;;5089668;28;20047;-86
2021/12/08 05:49:16;;;;;;;26.70;16.67;;;4.60;99.90;;;;;;5073414;28;20093;-86
2021/12/08 05:51:42;;;;;;;26.92;16.15;;;4.70;99.90;;;;;;5090167;28;20055;-86
2021/12/08 05:54:14;;;;;;;27.17;16.30;;;4.70;99.90;;;;;;5090853;28;20046;-85
2021/12/08 05:56:41;;;;;;;26.02;16.25;;;4.70;99.90;;;;;;5056415;28;20113;-85
2021/12/08 05:59:07;;;;;;;26.10;16.00;;;4.70;99.90;;;;;;5088661;28;20040;-87
2021/12/08 06:01:44;;;;;;;22.15;16.20;;;4.70;99.90;;;;;;5107053;28;20134;-87
2021/12/08 06:04:11;;;;;;;24.95;15.32;;;4.60;99.90;;;;;;5100037;28;20055;-91
2021/12/08 06:06:37;;;;;;;23.92;15.90;;;6.00;99.90;;;;;;5077390;28;20052;-92
2021/12/08 06:09:05;;;;;;;26.67;14.55;;;4.50;99.90;;;;;;5097431;28;20059;-90
2021/12/08 06:11:32;;;;;;;22.25;14.65;;;5.20;99.90;;;;;;5093732;28;20067;-92
2021/12/08 06:13:59;;;;;;;27.13;15.10;;;4.50;99.90;;;;;;5090815;28;20044;-89
2021/12/08 06:16:26;;;;;;;23.95;15.68;;;4.60;99.90;;;;;;5090368;28;20081;-88
2021/12/08 06:18:52;;;;;;;23.67;15.07;;;5.50;99.90;;;;;;5073444;28;20056;-89
2021/12/08 06:21:20;;;;;;;21.55;15.38;;;4.90;99.90;;;;;;5089963;28;20090;-85
2021/12/08 06:23:46;;;;;;;24.00;15.88;;;4.60;99.90;;;;;;5091000;28;20047;-85
2021/12/08 06:26:14;;;;;;;21.88;15.18;;;4.80;99.90;;;;;;5106853;28;20060;-85
2021/12/08 06:28:40;;;;;;;21.98;14.57;;;4.60;99.90;;;;;;5091077;28;20496;-90
2021/12/08 06:31:06;;;;;;;21.63;14.65;;;4.60;99.90;;;;;;5091429;28;20054;-90
2021/12/08 06:33:31;;;;;;;23.95;14.98;;;4.70;99.90;;;;;;5071560;28;20434;-87
2021/12/08 06:36:06;;;;;;;22.73;14.10;;;4.70;99.90;;;;;;5090095;28;20482;-87
2021/12/08 06:38:32;;;;;;;20.25;13.30;;;4.70;99.90;;;;;;5073720;28;20048;-86
2021/12/08 06:41:03;;;;;;;24.20;14.52;;;4.70;99.90;;;;;;5089233;28;20109;-86
2021/12/08 06:43:32;;;;;;;20.98;13.40;;;4.70;99.90;;;;;;5091015;28;20087;-88
2021/12/08 06:45:58;;;;;;;20.17;13.43;;;4.70;99.90;;;;;;5089338;28;20525;-90
2021/12/08 06:48:27;;;;;;;18.80;12.25;;;4.70;99.90;;;;;;5089931;28;20056;-90
2021/12/08 06:51:00;;;;;;;18.35;12.50;;;5.50;99.90;;;;;;5073487;28;20122;-87
2021/12/08 06:53:26;;;;;;;20.52;12.05;;;4.80;99.90;;;;;;5090967;28;20056;-90
2021/12/08 06:55:55;;;;;;;20.42;12.13;;;4.80;99.90;;;;;;5090910;28;20044;-86
2021/12/08 06:58:24;;;;;;;18.05;11.32;;;4.80;99.90;;;;;;5090969;28;20498;-86
2021/12/08 07:01:09;;;;;;;15.98;10.73;;;4.70;99.90;;;;;;5089615;28;20086;-86
2021/12/08 07:06:48;;;;;;;15.55;10.55;;;4.80;99.90;;;;;;5089796;28;20120;-85
2021/12/08 07:09:16;;;;;;;16.98;11.23;;;4.80;99.90;;;;;;5075482;28;20456;-84
2021/12/08 07:11:42;;;;;;;15.48;10.35;;;4.70;99.90;;;;;;5093039;28;20044;-85
2021/12/08 07:14:07;;;;;;;18.52;10.40;;;4.80;99.90;;;;;;5094411;28;20052;-85
2021/12/08 07:16:36;;;;;;;16.75;9.77;;;5.10;99.90;;;;;;5093183;28;20392;-85
2021/12/08 07:19:23;;;;;;;13.70;9.13;;;4.80;99.90;;;;;;5092922;28;20055;-85
2021/12/08 07:21:49;;;;;;;12.80;8.52;;;4.90;99.90;;;;;;5077682;28;20472;-85
2021/12/08 07:24:19;;;;;;;12.80;9.27;;;4.70;99.90;;;;;;5092641;28;20400;-85
2021/12/08 07:26:45;;;;;;;13.73;7.82;;;4.70;99.90;;;;;;5077152;28;20055;-85
2021/12/08 07:29:13;;;;;;;17.52;7.10;;;4.70;99.90;;;;;;5093868;28;20520;-85
2021/12/08 07:31:42;;;;;;;8.20;5.90;;;6.00;99.90;;;;;;5076581;28;20040;-85
2021/12/08 07:34:13;;;;;;;12.65;6.93;;;5.40;99.90;;;;;;5094014;28;20132;-84
2021/12/08 07:36:40;;;;;;;10.10;6.57;;;4.90;99.90;;;;;;5093096;28;20048;-85
2021/12/08 07:39:11;;;;;;;11.70;6.10;;;5.40;99.90;;;;;;5059362;28;20052;-84
2021/12/08 07:41:39;;;;;;;8.68;5.95;;;5.20;99.90;;;;;;5094352;28;20052;-84
2021/12/08 07:44:10;;;;;;;11.23;6.45;;;4.90;99.90;;;;;;5093723;28;20048;-85
2021/12/08 07:46:50;;;;;;;10.77;5.63;;;4.90;99.90;;;;;;5092690;28;20488;-85
2021/12/08 07:49:24;;;;;;;9.98;5.40;;;4.90;99.90;;;;;;5092425;28;20121;-85
2021/12/08 07:52:02;;;;;;;13.23;5.72;;;4.90;99.90;;;;;;5092662;28;20050;-85
2021/12/08 07:54:29;;;;;;;14.05;5.50;;;4.80;99.90;;;;;;5092306;28;20522;-85
2021/12/08 07:56:56;;;;;;;9.85;5.45;;;5.00;99.90;;;;;;5096300;28;20075;-84
2021/12/08 07:59:21;;;;;;;14.20;5.32;;;4.90;99.90;;;;;;5094084;28;20056;-85
2021/12/08 08:01:51;;;;;;;14.25;5.43;;;4.90;99.90;;;;;;5059694;28;20055;-84
2021/12/08 08:04:19;;;;;;;13.52;4.50;;;5.00;99.90;;;;;;5059119;28;20047;-85
2021/12/08 08:06:47;;;;;;;12.60;5.00;;;5.00;99.90;;;;;;5092714;28;20078;-86
2021/12/08 08:09:17;;;;;;;13.00;5.03;;;5.10;99.90;;;;;;5075739;28;20077;-85
2021/12/08 08:11:44;;;;;;;9.10;5.00;;;5.00;99.90;;;;;;5059797;28;20137;-85
2021/12/08 08:14:11;;;;;;;10.18;4.82;;;4.90;99.90;;;;;;5075517;28;20082;-85
2021/12/08 08:16:37;;;;;;;13.25;4.13;;;4.90;99.90;;;;;;5092303;28;20151;-86
2021/12/08 08:19:10;;;;;;;12.30;3.85;;;5.00;99.90;;;;;;5092185;28;20083;-86
2021/12/08 08:21:38;;;;;;;8.90;4.38;;;5.00;99.90;;;;;;5093035;28;20086;-84
2021/12/08 08:24:04;;;;;;;8.45;3.38;;;5.20;99.90;;;;;;5091108;28;20075;-84
2021/12/08 08:26:30;;;;;;;6.38;3.20;;;5.50;99.90;;;;;;5091253;28;20606;-87
2021/12/08 08:28:57;;;;;;;11.93;4.22;;;5.10;99.90;;;;;;5092127;28;20070;-87
2021/12/08 08:31:26;;;;;;;9.80;3.35;;;5.20;99.90;;;;;;5092715;28;20036;-86
2021/12/08 08:33:52;;;;;;;11.35;3.40;;;5.30;99.90;;;;;;5093237;28;20104;-88
2021/12/08 08:36:20;;;;;;;12.18;3.60;;;5.30;99.90;;;;;;5092467;28;20055;-88
2021/12/08 08:38:50;;;;;;;7.43;2.97;;;5.30;99.90;;;;;;5091555;28;20062;-88
2021/12/08 08:41:20;;;;;;;7.07;2.45;;;5.40;99.90;;;;;;5092296;28;20477;-86
2021/12/08 08:43:46;;;;;;;11.13;3.25;;;5.40;99.90;;;;;;5093242;28;20059;-87
2021/12/08 08:46:15;;;;;;;11.63;4.45;;;5.30;99.90;;;;;;5091700;28;20051;-84
2021/12/08 08:48:44;;;;;;;10.40;2.80;;;5.40;99.90;;;;;;5092967;28;20059;-84
2021/12/08 08:51:18;;;;;;;9.20;2.70;;;5.50;99.90;;;;;;5075024;28;20040;-85
2021/12/08 08:53:45;;;;;;;8.00;2.40;;;5.80;99.90;;;;;;5091692;28;20052;-86
2021/12/08 08:56:20;;;;;;;9.35;2.83;;;6.20;99.90;;;;;;5092828;28;20048;-85
2021/12/08 08:58:48;;;;;;;9.45;3.00;;;6.30;99.90;;;;;;5091323;28;20118;-85
2021/12/08 09:01:21;;;;;;;10.18;2.95;;;6.40;99.90;;;;;;5092381;28;20055;-86
2021/12/08 09:03:53;;;;;;;8.27;2.53;;;6.60;99.90;;;;;;5075268;28;20044;-86
2021/12/08 09:06:33;;;;;;;11.32;3.72;;;7.00;99.90;;;;;;5107995;28;20070;-84
2021/12/08 09:09:02;;;;;;;9.93;2.72;;;7.30;99.90;;;;;;5075089;28;20510;-85
2021/12/08 09:11:37;;;;;;;9.68;2.33;;;7.40;99.90;;;;;;5057640;28;20181;-83
2021/12/08 09:14:07;;;;;;;11.45;2.40;;;7.40;99.90;;;;;;5074167;28;20080;-84
2021/12/08 09:16:43;;;;;;;6.72;2.30;;;8.20;99.90;;;;;;5090028;28;20105;-85
2021/12/08 09:19:13;;;;;;;8.40;2.95;;;7.30;99.90;;;;;;5074506;28;20101;-85
2021/12/08 09:21:43;;;;;;;11.35;3.45;;;7.10;99.90;;;;;;5073026;28;20506;-85
2021/12/08 09:24:20;;;;;;;7.70;2.75;;;6.80;99.90;;;;;;5057902;28;20048;-85
2021/12/08 09:26:50;;;;;;;10.05;2.85;;;6.60;99.90;;;;;;5090666;28;20044;-85
2021/12/08 09:29:22;;;;;;;10.40;2.70;;;6.60;99.90;;;;;;5090673;28;20446;-85
2021/12/08 09:31:54;;;;;;;8.05;2.90;;;6.60;99.90;;;;;;5074634;28;20051;-86
2021/12/08 09:34:23;;;;;;;11.30;2.80;;;6.40;99.90;;;;;;5091074;28;20074;-86
2021/12/08 09:36:55;;;;;;;10.05;2.72;;;6.40;99.90;;;;;;5090658;28;20062;-85
2021/12/08 09:39:31;;;;;;;9.13;2.75;;;6.30;99.90;;;;;;5074693;28;20044;-85
2021/12/08 09:42:03;;;;;;;10.02;2.63;;;6.20;99.90;;;;;;5092518;28;20048;-85
2021/12/08 09:44:31;;;;;;;9.10;3.05;;;6.10;99.90;;;;;;5091534;28;20462;-84
2021/12/08 09:46:57;;;;;;;10.93;2.80;;;6.10;99.90;;;;;;5090606;28;20065;-84
2021/12/08 09:49:24;;;;;;;11.45;3.53;;;6.00;99.90;;;;;;5090526;28;20134;-84
2021/12/08 09:51:54;;;;;;;9.95;2.63;;;6.00;99.90;;;;;;5090435;28;20055;-84
2021/12/08 09:54:20;;;;;;;8.82;2.80;;;6.10;99.90;;;;;;5090177;28;20048;-85
2021/12/08 09:56:49;;;;;;;14.65;3.38;;;6.20;99.90;;;;;;5089483;28;20554;-84
2021/12/08 09:59:14;;;;;;;8.73;2.95;;;6.30;99.90;;;;;;5089803;28;20518;-84
2021/12/08 10:01:42;;;;;;;12.35;3.63;;;6.40;99.90;;;;;;5090658;28;20080;-84
2021/12/08 10:04:08;;;;;;;7.50;2.80;;;6.40;99.90;;;;;;5089790;28;20040;-84
2021/12/08 10:06:34;;;;;;;10.23;2.97;;;6.50;99.90;;;;;;5072448;28;20564;-83
2021/12/08 10:09:00;;;;;;;13.93;3.05;;;6.40;99.90;;;;;;5089455;28;20052;-85
2021/12/08 10:11:27;;;;;;;10.15;3.22;;;6.60;99.90;;;;;;5091221;28;20050;-84
2021/12/08 10:13:53;;;;;;;13.82;3.25;;;6.40;99.90;;;;;;5089270;28;20084;-84
2021/12/08 10:16:18;;;;;;;11.80;3.15;;;6.60;99.90;;;;;;5073066;28;20129;-84
2021/12/08 10:18:44;;;;;;;9.70;3.08;;;6.60;99.90;;;;;;5089417;28;20580;-85
2021/12/08 10:21:10;;;;;;;11.05;3.20;;;6.60;99.90;;;;;;5089700;28;20051;-85
2021/12/08 10:23:37;;;;;;;9.73;3.10;;;6.50;99.90;;;;;;5090590;28;20134;-84
2021/12/08 10:26:06;;;;;;;8.18;2.75;;;6.40;99.90;;;;;;5073058;28;20052;-85
2021/12/08 10:28:56;;;;;;;10.43;2.78;;;6.40;99.90;;;;;;5090782;28;20379;-85
2021/12/08 10:31:31;;;;;;;12.77;3.85;;;6.30;99.90;;;;;;5089268;28;20565;-87
2021/12/08 10:36:46;;;;;;;9.70;3.08;;;6.30;99.90;;;;;;5073942;28;20052;-86
2021/12/08 10:39:19;;;;;;;7.05;2.83;;;6.40;99.90;;;;;;5090890;28;20059;-86
2021/12/08 10:42:23;;;;;;;11.32;3.47;;;6.50;99.90;;;;;;5089723;28;20131;-86
2021/12/08 10:45:08;;;;;;;9.55;3.40;;;6.50;99.90;;;;;;5059431;28;20060;-86
2021/12/08 10:47:39;;;;;;;9.35;3.40;;;6.50;99.90;;;;;;5080863;28;20398;-85
2021/12/08 10:55:37;;;;;;;9.32;3.08;;;6.50;99.90;;;;;;5082089;28;20060;-83
2021/12/08 10:58:03;;;;;;;12.70;4.22;;;6.40;99.90;;;;;;5096694;28;20055;-85
2021/12/08 11:00:31;;;;;;;9.82;3.22;;;6.30;99.90;;;;;;5097772;28;20048;-92
2021/12/08 11:03:01;;;;;;;10.93;3.72;;;6.40;99.90;;;;;;5096782;28;20056;-88
2021/12/08 11:05:31;;;;;;;9.15;3.20;;;7.20;99.90;;;;;;5098216;28;20063;-85
2021/12/08 11:08:02;;;;;;;12.32;2.90;;;6.40;99.90;;;;;;5097471;28;20063;-92
2021/12/08 11:10:28;;;;;;;12.23;3.15;;;6.40;99.90;;;;;;5097666;28;20044;-87
2021/12/08 11:12:55;;;;;;;12.23;3.10;;;6.40;99.90;;;;;;5095900;28;20080;-83
2021/12/08 11:15:22;;;;;;;13.55;3.42;;;6.70;99.90;;;;;;5096512;28;20054;-83
2021/12/08 11:17:48;;;;;;;11.15;2.83;;;6.50;99.90;;;;;;5079395;28;20086;-84
2021/12/08 11:20:24;;;;;;;8.27;3.00;;;6.60;99.90;;;;;;5079606;28;20051;-85
2021/12/08 11:23:04;;;;;;;8.93;3.45;;;6.50;99.90;;;;;;5095844;28;20119;-86
2021/12/08 11:25:39;;;;;;;6.47;3.20;;;6.60;99.90;;;;;;5097521;28;20085;-85
2021/12/08 11:28:30;;;;;;;10.95;3.33;;;6.40;99.90;;;;;;5095620;28;20147;-88
2021/12/08 11:31:03;;;;;;;9.00;3.38;;;6.20;99.90;;;;;;5097320;28;20040;-87
2021/12/08 11:33:29;;;;;;;11.52;3.70;;;6.30;99.90;;;;;;5096674;28;20533;-85
2021/12/08 11:36:28;;;;;;;9.10;3.22;;;6.40;99.90;;;;;;5097298;28;20052;-84
2021/12/08 11:38:54;;;;;;;8.93;3.92;;;6.40;99.90;;;;;;5035524;28;20113;-86
2021/12/08 11:41:34;;;;;;;11.27;3.38;;;6.50;99.90;;;;;;5097821;28;20044;-86
2021/12/08 11:44:00;;;;;;;7.82;3.55;;;6.50;99.90;;;;;;5096295;28;20039;-87
2021/12/08 11:46:26;;;;;;;9.65;3.55;;;6.50;99.90;;;;;;5097282;28;20480;-88
2021/12/08 11:48:59;;;;;;;11.82;4.28;;;6.90;99.90;;;;;;5095794;28;20052;-87
2021/12/08 11:51:25;;;;;;;7.35;2.80;;;6.60;99.90;;;;;;5079546;28;20044;-89
2021/12/08 11:53:51;;;;;;;9.45;2.97;;;6.60;99.90;;;;;;5094706;28;20047;-86
2021/12/08 11:56:40;;;;;;;10.15;3.10;;;6.60;99.90;;;;;;5078483;28;20044;-88
2021/12/08 11:59:07;;;;;;;8.48;3.30;;;6.60;99.90;;;;;;5074223;28;20507;-88
2021/12/08 12:01:33;;;;;;;12.23;3.90;;;7.40;99.90;;;;;;5091840;28;20048;-85
2021/12/08 12:03:59;;;;;;;11.77;3.30;;;6.60;99.90;;;;;;5092437;28;20048;-85
2021/12/08 12:06:28;;;;;;;11.75;4.07;;;6.60;99.90;;;;;;5075701;28;20502;-87
2021/12/08 12:08:58;;;;;;;11.52;4.13;;;6.90;99.90;;;;;;5092941;28;20091;-86
2021/12/08 12:11:25;;;;;;;15.20;3.53;;;6.70;99.90;;;;;;5075509;28;20505;-85
2021/12/08 12:13:52;;;;;;;10.55;3.63;;;6.70;99.90;;;;;;5091874;28;20051;-85
2021/12/08 12:16:17;;;;;;;8.35;3.00;;;6.60;99.90;;;;;;5075438;28;20047;-85
2021/12/08 12:18:43;;;;;;;9.02;2.67;;;6.60;99.90;;;;;;5091839;28;20048;-86
2021/12/08 12:21:18;;;;;;;7.38;3.20;;;6.50;99.90;;;;;;5074881;28;20043;-86
2021/12/08 12:24:02;;;;;;;8.82;2.90;;;6.60;99.90;;;;;;5092293;28;20040;-86
2021/12/08 12:26:53;;;;;;;12.13;3.10;;;6.60;99.90;;;;;;5094148;28;20178;-86
2021/12/08 12:29:19;;;;;;;11.05;3.78;;;5.70;99.90;;;;;;5091709;28;20130;-85
2021/12/08 12:32:09;;;;;;;9.38;2.75;;;6.50;99.90;;;;;;5091839;28;20550;-83
2021/12/08 12:34:35;;;;;;;7.10;2.72;;;6.50;99.90;;;;;;5093100;28;20050;-87
2021/12/08 12:37:28;;;;;;;9.75;2.50;;;6.50;99.90;;;;;;5074570;28;20428;-88
2021/12/08 12:39:55;;;;;;;12.88;2.80;;;6.50;99.90;;;;;;5065019;28;20044;-86
2021/12/08 12:42:21;;;;;;;6.57;2.85;;;6.50;99.90;;;;;;5091565;28;20052;-85
2021/12/08 12:45:08;;;;;;;8.48;3.30;;;6.40;99.90;;;;;;5074809;28;20047;-87
2021/12/08 12:47:34;;;;;;;6.78;2.47;;;6.50;99.90;;;;;;5091440;28;20395;-87
2021/12/08 12:49:59;;;;;;;9.07;2.72;;;7.10;99.90;;;;;;5090427;28;20044;-87
2021/12/08 12:52:36;;;;;;;10.93;3.10;;;6.40;99.90;;;;;;5091772;28;20052;-88
2021/12/08 12:55:11;;;;;;;7.30;2.60;;;6.40;99.90;;;;;;5074037;28;20054;-87
2021/12/08 12:58:04;;;;;;;8.88;2.67;;;6.40;99.90;;;;;;5090748;28;20063;-88
2021/12/08 13:00:42;;;;;;;9.35;3.10;;;6.40;99.90;;;;;;5091410;28;20043;-88
2021/12/08 13:03:08;;;;;;;10.77;3.17;;;6.40;99.90;;;;;;5092378;28;20408;-89
2021/12/08 13:05:50;;;;;;;6.60;2.85;;;6.30;99.90;;;;;;5057156;28;20056;-88
2021/12/08 13:08:39;;;;;;;5.93;2.80;;;6.40;99.90;;;;;;5070029;28;20053;-87
2021/12/08 13:11:26;;;;;;;6.95;2.92;;;6.40;99.90;;;;;;5071838;28;20080;-87
2021/12/08 13:13:54;;;;;;;11.45;2.90;;;6.40;99.90;;;;;;5088089;28;20049;-86
2021/12/08 13:16:33;;;;;;;16.08;3.25;;;6.50;99.90;;;;;;5038172;28;20149;-88
2021/12/08 13:19:03;;;;;;;7.32;2.63;;;6.80;99.90;;;;;;5070859;28;20055;-88
2021/12/08 13:21:46;;;;;;;6.78;2.72;;;6.50;99.90;;;;;;5070655;28;20084;-86
2021/12/08 13:24:34;;;;;;;9.60;2.80;;;6.50;99.90;;;;;;5070677;28;20092;-87
2021/12/08 13:27:01;;;;;;;11.70;2.80;;;6.50;99.90;;;;;;5072023;28;20084;-89
2021/12/08 13:29:26;;;;;;;11.63;2.67;;;6.50;99.90;;;;;;5071474;28;20052;-90
2021/12/08 13:32:00;;;;;;;14.95;2.80;;;6.50;99.90;;;;;;5054709;28;20056;-91
2021/12/08 13:34:31;;;;;;;10.88;2.67;;;6.50;99.90;;;;;;5055274;28;20083;-90
2021/12/08 13:37:11;;;;;;;9.38;2.80;;;6.50;99.90;;;;;;5054456;28;20056;-89
2021/12/08 13:39:37;;;;;;;9.60;2.65;;;6.50;99.90;;;;;;5070251;28;20507;-90
2021/12/08 13:42:13;;;;;;;8.20;2.38;;;6.50;99.90;;;;;;5054766;28;20179;-89
2021/12/08 13:45:00;;;;;;;8.73;2.58;;;6.40;99.90;;;;;;5072885;28;20051;-90
2021/12/08 13:47:31;;;;;;;7.32;2.83;;;6.90;99.90;;;;;;5071393;28;20083;-90
2021/12/08 13:50:11;;;;;;;8.98;2.67;;;6.40;99.90;;;;;;5053735;28;20051;-90
2021/12/08 13:53:06;;;;;;;9.95;2.78;;;6.40;99.90;;;;;;5070342;28;20048;-91
2021/12/08 13:55:32;;;;;;;11.90;3.38;;;6.40;99.90;;;;;;5063972;28;20068;-91
2021/12/08 13:58:07;;;;;;;8.60;2.83;;;6.40;99.90;;;;;;5072126;28;20103;-92